sensor_id;sensor_type;location;lat;lon;timestamp;P1;durP1;ratioP1;P2;durP2;ratioP2
44822;SDS011;51097;51.984;5.650;2023-05-10T00:01:42;47.60;;;33.20;;
44822;SDS011;51097;51.984;5.650;2023-05-10T00:04:08;51.65;;;33.88;;
44822;SDS011;51097;51.984;5.650;2023-05-10T00:06:33;50.58;;;34.20;;
44822;SDS011;51097;51.984;5.650;2023-05-10T00:08:59;49.67;;;34.67;;
44822;SDS011;51097;51.984;5.650;2023-05-10T00:11:25;50.72;;;35.42;;
44822;SDS011;51097;51.984;5.650;2023-05-10T00:13:50;52.05;;;37.00;;
44822;SDS011;51097;51.984;5.650;2023-05-10T00:16:16;49.67;;;34.33;;
44822;SDS011;51097;51.984;5.650;2023-05-10T00:18:41;54.90;;;36.17;;
44822;SDS011;51097;51.984;5.650;2023-05-10T00:21:07;63.50;;;38.13;;
44822;SDS011;51097;51.984;5.650;2023-05-10T00:23:32;54.95;;;36.28;;
44822;SDS011;51097;51.984;5.650;2023-05-10T00:25:58;60.38;;;39.38;;
44822;SDS011;51097;51.984;5.650;2023-05-10T00:28:23;56.47;;;39.50;;
44822;SDS011;51097;51.984;5.650;2023-05-10T00:30:49;58.67;;;37.50;;
44822;SDS011;51097;51.984;5.650;2023-05-10T00:33:14;65.30;;;37.92;;
44822;SDS011;51097;51.984;5.650;2023-05-10T00:35:40;62.83;;;37.72;;
44822;SDS011;51097;51.984;5.650;2023-05-10T00:38:06;63.17;;;40.17;;
44822;SDS011;51097;51.984;5.650;2023-05-10T00:40:31;61.88;;;37.92;;
44822;SDS011;51097;51.984;5.650;2023-05-10T00:42:57;61.67;;;38.55;;
44822;SDS011;51097;51.984;5.650;2023-05-10T00:45:24;62.35;;;40.67;;
44822;SDS011;51097;51.984;5.650;2023-05-10T00:47:50;54.85;;;36.55;;
44822;SDS011;51097;51.984;5.650;2023-05-10T00:50:19;61.30;;;38.17;;
44822;SDS011;51097;51.984;5.650;2023-05-10T00:52:46;62.78;;;37.95;;
44822;SDS011;51097;51.984;5.650;2023-05-10T00:55:11;59.58;;;36.28;;
44822;SDS011;51097;51.984;5.650;2023-05-10T00:57:37;62.30;;;38.05;;
44822;SDS011;51097;51.984;5.650;2023-05-10T01:00:03;60.50;;;38.72;;
44822;SDS011;51097;51.984;5.650;2023-05-10T01:02:29;58.42;;;36.53;;
44822;SDS011;51097;51.984;5.650;2023-05-10T01:04:55;59.92;;;36.17;;
44822;SDS011;51097;51.984;5.650;2023-05-10T01:07:21;64.22;;;37.63;;
44822;SDS011;51097;51.984;5.650;2023-05-10T01:09:48;59.50;;;38.80;;
44822;SDS011;51097;51.984;5.650;2023-05-10T01:12:14;61.35;;;39.05;;
44822;SDS011;51097;51.984;5.650;2023-05-10T01:14:40;63.95;;;38.03;;
44822;SDS011;51097;51.984;5.650;2023-05-10T01:17:06;63.67;;;37.17;;
44822;SDS011;51097;51.984;5.650;2023-05-10T01:19:34;65.40;;;38.17;;
44822;SDS011;51097;51.984;5.650;2023-05-10T01:22:25;60.47;;;35.17;;
44822;SDS011;51097;51.984;5.650;2023-05-10T01:25:02;55.47;;;32.97;;
44822;SDS011;51097;51.984;5.650;2023-05-10T01:38:49;67.28;;;34.78;;
44822;SDS011;51097;51.984;5.650;2023-05-10T01:41:24;59.33;;;32.22;;
44822;SDS011;51097;51.984;5.650;2023-05-10T01:46:31;65.70;;;34.28;;
44822;SDS011;51097;51.984;5.650;2023-05-10T01:49:01;66.53;;;35.42;;
44822;SDS011;51097;51.984;5.650;2023-05-10T01:51:35;64.75;;;34.65;;
44822;SDS011;51097;51.984;5.650;2023-05-10T01:54:10;69.20;;;35.13;;
44822;SDS011;51097;51.984;5.650;2023-05-10T01:56:38;68.47;;;35.30;;
44822;SDS011;51097;51.984;5.650;2023-05-10T01:59:08;68.22;;;34.30;;
44822;SDS011;51097;51.984;5.650;2023-05-10T02:01:38;65.90;;;34.42;;
44822;SDS011;51097;51.984;5.650;2023-05-10T02:04:06;65.45;;;35.03;;
44822;SDS011;51097;51.984;5.650;2023-05-10T02:06:33;67.50;;;36.42;;
44822;SDS011;51097;51.984;5.650;2023-05-10T02:09:00;69.28;;;36.58;;
44822;SDS011;51097;51.984;5.650;2023-05-10T02:11:28;69.68;;;36.65;;
44822;SDS011;51097;51.984;5.650;2023-05-10T02:13:55;72.18;;;38.30;;
44822;SDS011;51097;51.984;5.650;2023-05-10T02:16:23;72.85;;;37.13;;
44822;SDS011;51097;51.984;5.650;2023-05-10T02:18:51;76.50;;;38.08;;
44822;SDS011;51097;51.984;5.650;2023-05-10T02:21:17;67.57;;;36.47;;
44822;SDS011;51097;51.984;5.650;2023-05-10T02:23:45;77.10;;;40.30;;
44822;SDS011;51097;51.984;5.650;2023-05-10T02:26:13;74.32;;;38.50;;
44822;SDS011;51097;51.984;5.650;2023-05-10T02:28:40;70.80;;;38.75;;
44822;SDS011;51097;51.984;5.650;2023-05-10T02:31:07;79.70;;;38.85;;
44822;SDS011;51097;51.984;5.650;2023-05-10T02:33:34;78.85;;;40.03;;
44822;SDS011;51097;51.984;5.650;2023-05-10T02:36:01;75.07;;;40.55;;
44822;SDS011;51097;51.984;5.650;2023-05-10T02:38:27;69.32;;;37.00;;
44822;SDS011;51097;51.984;5.650;2023-05-10T02:40:55;81.05;;;41.55;;
44822;SDS011;51097;51.984;5.650;2023-05-10T02:43:22;73.38;;;39.25;;
44822;SDS011;51097;51.984;5.650;2023-05-10T02:45:48;80.07;;;42.05;;
44822;SDS011;51097;51.984;5.650;2023-05-10T02:48:14;76.45;;;40.08;;
44822;SDS011;51097;51.984;5.650;2023-05-10T02:50:41;75.63;;;40.65;;
44822;SDS011;51097;51.984;5.650;2023-05-10T02:53:10;81.45;;;40.40;;
44822;SDS011;51097;51.984;5.650;2023-05-10T02:55:44;68.53;;;38.63;;
44822;SDS011;51097;51.984;5.650;2023-05-10T02:58:13;67.40;;;39.13;;
44822;SDS011;51097;51.984;5.650;2023-05-10T03:00:38;68.20;;;39.40;;
44822;SDS011;51097;51.984;5.650;2023-05-10T03:03:04;66.35;;;37.15;;
44822;SDS011;51097;51.984;5.650;2023-05-10T03:05:30;66.05;;;37.35;;
44822;SDS011;51097;51.984;5.650;2023-05-10T03:07:55;66.28;;;38.75;;
44822;SDS011;51097;51.984;5.650;2023-05-10T03:10:22;68.78;;;39.28;;
44822;SDS011;51097;51.984;5.650;2023-05-10T03:13:01;64.72;;;37.95;;
44822;SDS011;51097;51.984;5.650;2023-05-10T03:18:07;68.13;;;38.50;;
44822;SDS011;51097;51.984;5.650;2023-05-10T03:20:47;66.07;;;38.88;;
44822;SDS011;51097;51.984;5.650;2023-05-10T03:25:43;65.53;;;37.25;;
44822;SDS011;51097;51.984;5.650;2023-05-10T03:28:12;69.63;;;38.22;;
44822;SDS011;51097;51.984;5.650;2023-05-10T03:30:39;65.88;;;37.10;;
44822;SDS011;51097;51.984;5.650;2023-05-10T03:33:06;65.80;;;37.95;;
44822;SDS011;51097;51.984;5.650;2023-05-10T03:35:32;66.35;;;38.30;;
44822;SDS011;51097;51.984;5.650;2023-05-10T03:37:58;63.83;;;38.20;;
44822;SDS011;51097;51.984;5.650;2023-05-10T03:40:23;62.33;;;37.13;;
44822;SDS011;51097;51.984;5.650;2023-05-10T03:42:50;75.63;;;39.55;;
44822;SDS011;51097;51.984;5.650;2023-05-10T03:45:16;63.40;;;37.13;;
44822;SDS011;51097;51.984;5.650;2023-05-10T03:47:41;64.03;;;36.55;;
44822;SDS011;51097;51.984;5.650;2023-05-10T03:50:07;63.53;;;35.88;;
44822;SDS011;51097;51.984;5.650;2023-05-10T03:52:33;71.93;;;40.33;;
44822;SDS011;51097;51.984;5.650;2023-05-10T03:54:58;68.25;;;38.95;;
44822;SDS011;51097;51.984;5.650;2023-05-10T03:57:24;69.05;;;39.10;;
44822;SDS011;51097;51.984;5.650;2023-05-10T03:59:50;78.07;;;43.15;;
44822;SDS011;51097;51.984;5.650;2023-05-10T04:02:15;74.80;;;40.33;;
44822;SDS011;51097;51.984;5.650;2023-05-10T04:04:41;72.35;;;41.22;;
44822;SDS011;51097;51.984;5.650;2023-05-10T04:07:06;73.57;;;40.90;;
44822;SDS011;51097;51.984;5.650;2023-05-10T04:09:32;69.45;;;40.20;;
44822;SDS011;51097;51.984;5.650;2023-05-10T04:11:58;72.68;;;39.80;;
44822;SDS011;51097;51.984;5.650;2023-05-10T04:14:25;66.75;;;39.10;;
44822;SDS011;51097;51.984;5.650;2023-05-10T04:16:51;69.47;;;37.45;;
44822;SDS011;51097;51.984;5.650;2023-05-10T04:19:16;66.05;;;39.08;;
44822;SDS011;51097;51.984;5.650;2023-05-10T04:21:42;68.35;;;39.35;;
44822;SDS011;51097;51.984;5.650;2023-05-10T04:24:07;64.28;;;35.72;;
44822;SDS011;51097;51.984;5.650;2023-05-10T04:26:33;62.13;;;37.25;;
44822;SDS011;51097;51.984;5.650;2023-05-10T04:28:58;58.28;;;36.60;;
44822;SDS011;51097;51.984;5.650;2023-05-10T04:31:24;66.38;;;35.78;;
44822;SDS011;51097;51.984;5.650;2023-05-10T04:33:50;58.38;;;33.50;;
44822;SDS011;51097;51.984;5.650;2023-05-10T04:36:15;61.05;;;32.72;;
44822;SDS011;51097;51.984;5.650;2023-05-10T04:38:41;60.10;;;33.63;;
44822;SDS011;51097;51.984;5.650;2023-05-10T04:41:08;51.72;;;29.38;;
44822;SDS011;51097;51.984;5.650;2023-05-10T04:43:34;57.47;;;31.83;;
44822;SDS011;51097;51.984;5.650;2023-05-10T04:46:01;51.78;;;27.42;;
44822;SDS011;51097;51.984;5.650;2023-05-10T04:48:26;53.28;;;29.73;;
44822;SDS011;51097;51.984;5.650;2023-05-10T04:50:52;52.22;;;29.60;;
44822;SDS011;51097;51.984;5.650;2023-05-10T04:53:20;56.90;;;31.30;;
44822;SDS011;51097;51.984;5.650;2023-05-10T04:55:45;70.55;;;36.55;;
44822;SDS011;51097;51.984;5.650;2023-05-10T04:58:14;68.75;;;35.90;;
44822;SDS011;51097;51.984;5.650;2023-05-10T05:00:40;74.80;;;36.83;;
44822;SDS011;51097;51.984;5.650;2023-05-10T05:03:06;75.68;;;35.70;;
44822;SDS011;51097;51.984;5.650;2023-05-10T05:05:32;68.28;;;36.00;;
44822;SDS011;51097;51.984;5.650;2023-05-10T05:07:57;62.50;;;33.92;;
44822;SDS011;51097;51.984;5.650;2023-05-10T05:10:23;71.75;;;36.83;;
44822;SDS011;51097;51.984;5.650;2023-05-10T05:12:48;76.00;;;38.97;;
44822;SDS011;51097;51.984;5.650;2023-05-10T05:15:14;76.18;;;38.85;;
44822;SDS011;51097;51.984;5.650;2023-05-10T05:17:41;70.07;;;37.67;;
44822;SDS011;51097;51.984;5.650;2023-05-10T05:20:07;79.97;;;38.60;;
44822;SDS011;51097;51.984;5.650;2023-05-10T05:22:33;65.28;;;37.58;;
44822;SDS011;51097;51.984;5.650;2023-05-10T05:25:00;72.25;;;36.70;;
44822;SDS011;51097;51.984;5.650;2023-05-10T05:27:27;62.75;;;31.75;;
44822;SDS011;51097;51.984;5.650;2023-05-10T05:29:53;60.65;;;35.35;;
44822;SDS011;51097;51.984;5.650;2023-05-10T05:32:19;60.35;;;33.50;;
44822;SDS011;51097;51.984;5.650;2023-05-10T05:34:45;61.13;;;33.00;;
44822;SDS011;51097;51.984;5.650;2023-05-10T05:37:17;63.13;;;33.50;;
44822;SDS011;51097;51.984;5.650;2023-05-10T05:39:45;55.95;;;31.05;;
44822;SDS011;51097;51.984;5.650;2023-05-10T05:42:11;65.72;;;33.90;;
44822;SDS011;51097;51.984;5.650;2023-05-10T05:44:37;59.53;;;32.92;;
44822;SDS011;51097;51.984;5.650;2023-05-10T05:47:04;57.88;;;32.03;;
44822;SDS011;51097;51.984;5.650;2023-05-10T05:49:30;62.45;;;34.63;;
44822;SDS011;51097;51.984;5.650;2023-05-10T05:52:02;65.43;;;35.90;;
44822;SDS011;51097;51.984;5.650;2023-05-10T05:54:29;61.58;;;33.67;;
44822;SDS011;51097;51.984;5.650;2023-05-10T05:56:55;66.78;;;34.80;;
44822;SDS011;51097;51.984;5.650;2023-05-10T05:59:21;63.92;;;35.08;;
44822;SDS011;51097;51.984;5.650;2023-05-10T06:01:47;59.65;;;33.20;;
44822;SDS011;51097;51.984;5.650;2023-05-10T06:04:12;58.83;;;32.85;;
44822;SDS011;51097;51.984;5.650;2023-05-10T06:06:38;58.42;;;33.53;;
44822;SDS011;51097;51.984;5.650;2023-05-10T06:09:03;71.78;;;36.72;;
44822;SDS011;51097;51.984;5.650;2023-05-10T06:11:29;64.03;;;35.97;;
44822;SDS011;51097;51.984;5.650;2023-05-10T06:13:57;67.15;;;36.25;;
44822;SDS011;51097;51.984;5.650;2023-05-10T06:16:23;70.35;;;38.47;;
44822;SDS011;51097;51.984;5.650;2023-05-10T06:18:48;70.72;;;37.78;;
44822;SDS011;51097;51.984;5.650;2023-05-10T06:21:14;62.55;;;38.08;;
44822;SDS011;51097;51.984;5.650;2023-05-10T06:23:41;63.28;;;37.85;;
44822;SDS011;51097;51.984;5.650;2023-05-10T06:26:06;62.92;;;38.60;;
44822;SDS011;51097;51.984;5.650;2023-05-10T06:28:32;69.93;;;40.22;;
44822;SDS011;51097;51.984;5.650;2023-05-10T06:30:58;71.32;;;39.95;;
44822;SDS011;51097;51.984;5.650;2023-05-10T06:33:24;69.65;;;40.10;;
44822;SDS011;51097;51.984;5.650;2023-05-10T06:35:49;77.38;;;40.10;;
44822;SDS011;51097;51.984;5.650;2023-05-10T06:38:15;76.78;;;42.13;;
44822;SDS011;51097;51.984;5.650;2023-05-10T06:40:41;83.32;;;43.45;;
44822;SDS011;51097;51.984;5.650;2023-05-10T06:43:07;87.32;;;42.78;;
44822;SDS011;51097;51.984;5.650;2023-05-10T06:45:33;88.40;;;42.05;;
44822;SDS011;51097;51.984;5.650;2023-05-10T06:47:58;74.05;;;40.90;;
44822;SDS011;51097;51.984;5.650;2023-05-10T06:50:24;80.15;;;44.80;;
44822;SDS011;51097;51.984;5.650;2023-05-10T06:52:50;74.78;;;39.33;;
44822;SDS011;51097;51.984;5.650;2023-05-10T06:55:15;73.55;;;39.60;;
44822;SDS011;51097;51.984;5.650;2023-05-10T06:57:41;74.28;;;42.05;;
44822;SDS011;51097;51.984;5.650;2023-05-10T07:00:06;66.63;;;38.25;;
44822;SDS011;51097;51.984;5.650;2023-05-10T07:02:34;72.63;;;40.00;;
44822;SDS011;51097;51.984;5.650;2023-05-10T07:05:00;66.88;;;37.47;;
44822;SDS011;51097;51.984;5.650;2023-05-10T07:07:25;76.80;;;40.28;;
44822;SDS011;51097;51.984;5.650;2023-05-10T07:09:51;76.95;;;41.65;;
44822;SDS011;51097;51.984;5.650;2023-05-10T07:12:17;74.05;;;40.22;;
44822;SDS011;51097;51.984;5.650;2023-05-10T07:14:42;76.78;;;41.15;;
44822;SDS011;51097;51.984;5.650;2023-05-10T07:17:08;71.15;;;36.60;;
44822;SDS011;51097;51.984;5.650;2023-05-10T07:19:34;68.63;;;38.95;;
44822;SDS011;51097;51.984;5.650;2023-05-10T07:22:00;69.70;;;40.42;;
44822;SDS011;51097;51.984;5.650;2023-05-10T07:24:25;65.50;;;40.33;;
44822;SDS011;51097;51.984;5.650;2023-05-10T07:26:51;62.30;;;37.25;;
44822;SDS011;51097;51.984;5.650;2023-05-10T07:29:17;64.35;;;37.47;;
44822;SDS011;51097;51.984;5.650;2023-05-10T07:31:42;64.88;;;35.97;;
44822;SDS011;51097;51.984;5.650;2023-05-10T07:34:08;58.55;;;34.65;;
44822;SDS011;51097;51.984;5.650;2023-05-10T07:36:34;65.30;;;39.28;;
44822;SDS011;51097;51.984;5.650;2023-05-10T07:39:00;66.05;;;39.72;;
44822;SDS011;51097;51.984;5.650;2023-05-10T07:41:25;65.60;;;38.38;;
44822;SDS011;51097;51.984;5.650;2023-05-10T07:43:52;63.83;;;35.40;;
44822;SDS011;51097;51.984;5.650;2023-05-10T07:46:17;57.83;;;34.30;;
44822;SDS011;51097;51.984;5.650;2023-05-10T07:48:44;47.50;;;30.05;;
44822;SDS011;51097;51.984;5.650;2023-05-10T07:51:10;42.85;;;28.52;;
44822;SDS011;51097;51.984;5.650;2023-05-10T07:53:36;42.67;;;28.02;;
44822;SDS011;51097;51.984;5.650;2023-05-10T07:56:19;34.08;;;24.02;;
44822;SDS011;51097;51.984;5.650;2023-05-10T07:58:54;35.63;;;22.98;;
44822;SDS011;51097;51.984;5.650;2023-05-10T08:01:21;29.27;;;20.48;;
44822;SDS011;51097;51.984;5.650;2023-05-10T08:03:47;31.88;;;19.35;;
44822;SDS011;51097;51.984;5.650;2023-05-10T08:06:13;28.85;;;18.35;;
44822;SDS011;51097;51.984;5.650;2023-05-10T08:08:40;26.33;;;17.65;;
44822;SDS011;51097;51.984;5.650;2023-05-10T08:11:06;25.85;;;16.58;;
44822;SDS011;51097;51.984;5.650;2023-05-10T08:13:31;25.55;;;17.38;;
44822;SDS011;51097;51.984;5.650;2023-05-10T08:15:57;25.70;;;16.52;;
44822;SDS011;51097;51.984;5.650;2023-05-10T08:18:23;22.25;;;14.48;;
44822;SDS011;51097;51.984;5.650;2023-05-10T08:20:48;21.95;;;15.38;;
44822;SDS011;51097;51.984;5.650;2023-05-10T08:23:14;20.15;;;15.32;;
44822;SDS011;51097;51.984;5.650;2023-05-10T08:25:39;22.92;;;14.05;;
44822;SDS011;51097;51.984;5.650;2023-05-10T08:28:05;19.85;;;13.43;;
44822;SDS011;51097;51.984;5.650;2023-05-10T08:30:31;18.48;;;12.63;;
44822;SDS011;51097;51.984;5.650;2023-05-10T08:32:56;19.98;;;12.40;;
44822;SDS011;51097;51.984;5.650;2023-05-10T08:35:22;15.18;;;11.93;;
44822;SDS011;51097;51.984;5.650;2023-05-10T08:37:47;15.52;;;12.52;;
44822;SDS011;51097;51.984;5.650;2023-05-10T08:40:13;16.75;;;12.15;;
44822;SDS011;51097;51.984;5.650;2023-05-10T08:42:41;18.92;;;13.27;;
44822;SDS011;51097;51.984;5.650;2023-05-10T08:47:36;17.30;;;12.00;;
44822;SDS011;51097;51.984;5.650;2023-05-10T08:50:03;15.43;;;11.77;;
44822;SDS011;51097;51.984;5.650;2023-05-10T08:52:29;12.95;;;10.60;;
44822;SDS011;51097;51.984;5.650;2023-05-10T08:54:56;14.75;;;12.10;;
44822;SDS011;51097;51.984;5.650;2023-05-10T08:57:23;16.40;;;10.80;;
44822;SDS011;51097;51.984;5.650;2023-05-10T08:59:48;18.50;;;10.63;;
44822;SDS011;51097;51.984;5.650;2023-05-10T09:02:14;13.23;;;11.60;;
44822;SDS011;51097;51.984;5.650;2023-05-10T09:04:41;13.65;;;10.20;;
44822;SDS011;51097;51.984;5.650;2023-05-10T09:07:06;16.10;;;11.95;;
44822;SDS011;51097;51.984;5.650;2023-05-10T09:09:32;13.45;;;11.63;;
44822;SDS011;51097;51.984;5.650;2023-05-10T09:11:59;12.90;;;10.50;;
44822;SDS011;51097;51.984;5.650;2023-05-10T09:14:25;15.82;;;11.07;;
44822;SDS011;51097;51.984;5.650;2023-05-10T09:16:51;17.00;;;10.93;;
44822;SDS011;51097;51.984;5.650;2023-05-10T09:19:19;14.32;;;11.23;;
44822;SDS011;51097;51.984;5.650;2023-05-10T09:21:44;14.20;;;11.02;;
44822;SDS011;51097;51.984;5.650;2023-05-10T09:24:10;14.65;;;11.00;;
44822;SDS011;51097;51.984;5.650;2023-05-10T09:26:43;10.93;;;9.75;;
44822;SDS011;51097;51.984;5.650;2023-05-10T09:29:13;14.40;;;10.35;;
44822;SDS011;51097;51.984;5.650;2023-05-10T09:31:43;13.20;;;10.52;;
44822;SDS011;51097;51.984;5.650;2023-05-10T09:34:19;11.35;;;9.98;;
44822;SDS011;51097;51.984;5.650;2023-05-10T09:36:53;12.15;;;10.35;;
44822;SDS011;51097;51.984;5.650;2023-05-10T09:39:35;14.93;;;10.52;;
44822;SDS011;51097;51.984;5.650;2023-05-10T09:42:03;11.48;;;9.70;;
44822;SDS011;51097;51.984;5.650;2023-05-10T09:44:31;14.93;;;9.55;;
44822;SDS011;51097;51.984;5.650;2023-05-10T09:46:58;14.30;;;9.82;;
44822;SDS011;51097;51.984;5.650;2023-05-10T09:49:24;12.95;;;10.00;;
44822;SDS011;51097;51.984;5.650;2023-05-10T09:51:59;15.45;;;10.82;;
44822;SDS011;51097;51.984;5.650;2023-05-10T09:54:29;14.57;;;10.57;;
44822;SDS011;51097;51.984;5.650;2023-05-10T09:56:55;13.10;;;10.70;;
44822;SDS011;51097;51.984;5.650;2023-05-10T09:59:21;11.25;;;9.50;;
44822;SDS011;51097;51.984;5.650;2023-05-10T10:01:49;10.68;;;9.50;;
44822;SDS011;51097;51.984;5.650;2023-05-10T10:04:16;13.88;;;9.70;;
44822;SDS011;51097;51.984;5.650;2023-05-10T10:06:42;11.23;;;10.05;;
44822;SDS011;51097;51.984;5.650;2023-05-10T10:09:08;13.77;;;9.77;;
44822;SDS011;51097;51.984;5.650;2023-05-10T10:11:38;11.65;;;8.98;;
44822;SDS011;51097;51.984;5.650;2023-05-10T10:14:04;11.75;;;9.95;;
44822;SDS011;51097;51.984;5.650;2023-05-10T10:16:30;12.98;;;9.68;;
44822;SDS011;51097;51.984;5.650;2023-05-10T10:18:56;15.10;;;9.57;;
44822;SDS011;51097;51.984;5.650;2023-05-10T10:21:22;11.98;;;8.00;;
44822;SDS011;51097;51.984;5.650;2023-05-10T10:23:48;9.60;;;8.60;;
44822;SDS011;51097;51.984;5.650;2023-05-10T10:26:14;11.32;;;9.48;;
44822;SDS011;51097;51.984;5.650;2023-05-10T10:31:25;14.27;;;9.95;;
44822;SDS011;51097;51.984;5.650;2023-05-10T10:34:01;11.50;;;9.18;;
44822;SDS011;51097;51.984;5.650;2023-05-10T10:36:31;14.93;;;9.43;;
44822;SDS011;51097;51.984;5.650;2023-05-10T10:39:01;13.38;;;9.85;;
44822;SDS011;51097;51.984;5.650;2023-05-10T10:44:25;13.57;;;9.90;;
44822;SDS011;51097;51.984;5.650;2023-05-10T10:49:33;13.35;;;10.02;;
44822;SDS011;51097;51.984;5.650;2023-05-10T10:52:15;14.07;;;9.90;;
44822;SDS011;51097;51.984;5.650;2023-05-10T11:02:45;11.38;;;9.60;;
44822;SDS011;51097;51.984;5.650;2023-05-10T11:07:54;10.15;;;8.80;;
44822;SDS011;51097;51.984;5.650;2023-05-10T11:10:21;11.45;;;9.38;;
44822;SDS011;51097;51.984;5.650;2023-05-10T11:13:06;12.38;;;9.55;;
44822;SDS011;51097;51.984;5.650;2023-05-10T11:18:00;12.18;;;9.60;;
44822;SDS011;51097;51.984;5.650;2023-05-10T11:20:42;10.43;;;8.73;;
44822;SDS011;51097;51.984;5.650;2023-05-10T11:23:12;12.90;;;9.50;;
44822;SDS011;51097;51.984;5.650;2023-05-10T11:25:44;12.93;;;9.57;;
44822;SDS011;51097;51.984;5.650;2023-05-10T11:30:37;12.15;;;10.07;;
44822;SDS011;51097;51.984;5.650;2023-05-10T11:33:04;14.90;;;10.52;;
44822;SDS011;51097;51.984;5.650;2023-05-10T11:35:31;11.40;;;8.40;;
44822;SDS011;51097;51.984;5.650;2023-05-10T11:38:05;14.93;;;10.35;;
44822;SDS011;51097;51.984;5.650;2023-05-10T11:40:34;13.68;;;10.05;;
44822;SDS011;51097;51.984;5.650;2023-05-10T11:43:00;10.25;;;8.77;;
44822;SDS011;51097;51.984;5.650;2023-05-10T11:45:26;8.98;;;7.78;;
44822;SDS011;51097;51.984;5.650;2023-05-10T11:47:53;10.32;;;8.10;;
44822;SDS011;51097;51.984;5.650;2023-05-10T11:50:20;12.13;;;7.57;;
44822;SDS011;51097;51.984;5.650;2023-05-10T11:52:45;8.10;;;7.25;;
44822;SDS011;51097;51.984;5.650;2023-05-10T11:55:16;7.70;;;6.25;;
44822;SDS011;51097;51.984;5.650;2023-05-10T11:57:41;9.48;;;7.88;;
44822;SDS011;51097;51.984;5.650;2023-05-10T12:00:09;9.98;;;7.38;;
44822;SDS011;51097;51.984;5.650;2023-05-10T12:02:36;8.65;;;6.95;;
44822;SDS011;51097;51.984;5.650;2023-05-10T12:05:02;9.75;;;7.22;;
44822;SDS011;51097;51.984;5.650;2023-05-10T12:07:28;11.55;;;8.00;;
44822;SDS011;51097;51.984;5.650;2023-05-10T12:10:07;8.50;;;7.30;;
44822;SDS011;51097;51.984;5.650;2023-05-10T12:12:43;8.15;;;7.05;;
44822;SDS011;51097;51.984;5.650;2023-05-10T12:17:43;8.95;;;6.88;;
44822;SDS011;51097;51.984;5.650;2023-05-10T12:20:28;7.90;;;6.75;;
44822;SDS011;51097;51.984;5.650;2023-05-10T12:22:57;9.23;;;7.03;;
44822;SDS011;51097;51.984;5.650;2023-05-10T12:25:24;7.82;;;7.13;;
44822;SDS011;51097;51.984;5.650;2023-05-10T12:27:55;8.85;;;7.63;;
44822;SDS011;51097;51.984;5.650;2023-05-10T12:30:23;7.88;;;6.38;;
44822;SDS011;51097;51.984;5.650;2023-05-10T12:32:53;9.68;;;7.30;;
44822;SDS011;51097;51.984;5.650;2023-05-10T12:35:24;8.32;;;6.57;;
44822;SDS011;51097;51.984;5.650;2023-05-10T12:37:52;8.73;;;7.00;;
44822;SDS011;51097;51.984;5.650;2023-05-10T12:40:18;10.02;;;7.60;;
44822;SDS011;51097;51.984;5.650;2023-05-10T12:42:45;10.77;;;8.00;;
44822;SDS011;51097;51.984;5.650;2023-05-10T12:45:11;8.70;;;7.32;;
44822;SDS011;51097;51.984;5.650;2023-05-10T12:47:36;8.60;;;7.20;;
44822;SDS011;51097;51.984;5.650;2023-05-10T12:50:02;7.75;;;6.80;;
44822;SDS011;51097;51.984;5.650;2023-05-10T12:52:28;8.80;;;7.57;;
44822;SDS011;51097;51.984;5.650;2023-05-10T12:54:54;8.40;;;6.72;;
44822;SDS011;51097;51.984;5.650;2023-05-10T12:57:20;8.82;;;7.32;;
44822;SDS011;51097;51.984;5.650;2023-05-10T12:59:45;8.68;;;7.63;;
44822;SDS011;51097;51.984;5.650;2023-05-10T13:02:11;10.68;;;8.93;;
44822;SDS011;51097;51.984;5.650;2023-05-10T13:04:37;10.25;;;9.35;;
44822;SDS011;51097;51.984;5.650;2023-05-10T13:07:05;11.55;;;10.55;;
44822;SDS011;51097;51.984;5.650;2023-05-10T13:09:31;11.38;;;10.38;;
44822;SDS011;51097;51.984;5.650;2023-05-10T13:11:56;12.32;;;10.80;;
44822;SDS011;51097;51.984;5.650;2023-05-10T13:14:22;12.38;;;11.27;;
44822;SDS011;51097;51.984;5.650;2023-05-10T13:16:48;13.05;;;11.70;;
44822;SDS011;51097;51.984;5.650;2023-05-10T13:19:13;15.55;;;12.45;;
44822;SDS011;51097;51.984;5.650;2023-05-10T13:21:39;13.77;;;12.48;;
44822;SDS011;51097;51.984;5.650;2023-05-10T13:24:06;17.77;;;12.45;;
44822;SDS011;51097;51.984;5.650;2023-05-10T13:26:32;16.98;;;13.15;;
44822;SDS011;51097;51.984;5.650;2023-05-10T13:28:58;15.13;;;13.70;;
44822;SDS011;51097;51.984;5.650;2023-05-10T13:31:23;15.95;;;13.48;;
44822;SDS011;51097;51.984;5.650;2023-05-10T13:33:49;14.18;;;12.88;;
44822;SDS011;51097;51.984;5.650;2023-05-10T13:36:14;17.30;;;14.30;;
44822;SDS011;51097;51.984;5.650;2023-05-10T13:38:40;16.05;;;14.55;;
44822;SDS011;51097;51.984;5.650;2023-05-10T13:41:06;15.30;;;13.80;;
44822;SDS011;51097;51.984;5.650;2023-05-10T13:43:31;16.45;;;15.02;;
44822;SDS011;51097;51.984;5.650;2023-05-10T13:45:57;15.95;;;14.02;;
44822;SDS011;51097;51.984;5.650;2023-05-10T13:48:22;15.73;;;12.60;;
44822;SDS011;51097;51.984;5.650;2023-05-10T13:50:48;8.52;;;7.32;;
44822;SDS011;51097;51.984;5.650;2023-05-10T13:53:13;7.60;;;6.82;;
44822;SDS011;51097;51.984;5.650;2023-05-10T13:55:39;7.65;;;5.90;;
44822;SDS011;51097;51.984;5.650;2023-05-10T13:58:05;6.93;;;5.00;;
44822;SDS011;51097;51.984;5.650;2023-05-10T14:00:30;5.85;;;5.30;;
44822;SDS011;51097;51.984;5.650;2023-05-10T14:02:56;7.05;;;5.85;;
44822;SDS011;51097;51.984;5.650;2023-05-10T14:05:21;6.63;;;5.95;;
44822;SDS011;51097;51.984;5.650;2023-05-10T14:07:48;7.90;;;7.03;;
44822;SDS011;51097;51.984;5.650;2023-05-10T14:10:15;8.65;;;7.75;;
44822;SDS011;51097;51.984;5.650;2023-05-10T14:12:40;8.40;;;7.60;;
44822;SDS011;51097;51.984;5.650;2023-05-10T14:15:06;9.73;;;8.30;;
44822;SDS011;51097;51.984;5.650;2023-05-10T14:17:32;9.18;;;8.25;;
44822;SDS011;51097;51.984;5.650;2023-05-10T14:19:58;9.40;;;8.50;;
44822;SDS011;51097;51.984;5.650;2023-05-10T14:22:23;10.15;;;8.82;;
44822;SDS011;51097;51.984;5.650;2023-05-10T14:24:49;8.43;;;7.53;;
44822;SDS011;51097;51.984;5.650;2023-05-10T14:27:15;9.15;;;7.70;;
44822;SDS011;51097;51.984;5.650;2023-05-10T14:29:41;10.90;;;7.80;;
44822;SDS011;51097;51.984;5.650;2023-05-10T14:32:07;8.85;;;6.68;;
44822;SDS011;51097;51.984;5.650;2023-05-10T14:34:32;7.80;;;7.00;;
44822;SDS011;51097;51.984;5.650;2023-05-10T14:36:58;7.35;;;5.63;;
44822;SDS011;51097;51.984;5.650;2023-05-10T14:39:23;7.53;;;6.15;;
44822;SDS011;51097;51.984;5.650;2023-05-10T14:41:49;7.47;;;6.47;;
44822;SDS011;51097;51.984;5.650;2023-05-10T14:44:16;9.45;;;6.20;;
44822;SDS011;51097;51.984;5.650;2023-05-10T14:46:41;6.40;;;5.10;;
44822;SDS011;51097;51.984;5.650;2023-05-10T14:49:07;6.47;;;5.40;;
44822;SDS011;51097;51.984;5.650;2023-05-10T14:51:33;6.63;;;5.43;;
44822;SDS011;51097;51.984;5.650;2023-05-10T14:53:58;5.95;;;5.00;;
44822;SDS011;51097;51.984;5.650;2023-05-10T14:56:24;8.38;;;6.32;;
44822;SDS011;51097;51.984;5.650;2023-05-10T14:58:50;8.20;;;6.25;;
44822;SDS011;51097;51.984;5.650;2023-05-10T15:01:16;8.60;;;6.20;;
44822;SDS011;51097;51.984;5.650;2023-05-10T15:03:42;8.55;;;6.43;;
44822;SDS011;51097;51.984;5.650;2023-05-10T15:06:07;9.65;;;6.57;;
44822;SDS011;51097;51.984;5.650;2023-05-10T15:08:33;10.15;;;7.38;;
44822;SDS011;51097;51.984;5.650;2023-05-10T15:10:59;9.48;;;7.10;;
44822;SDS011;51097;51.984;5.650;2023-05-10T15:13:25;9.00;;;7.05;;
44822;SDS011;51097;51.984;5.650;2023-05-10T15:15:50;11.40;;;7.95;;